Scroll down
FLIGHT INFORMATION
British Airways

BAW218

At Arrival Gate

KDEN
 EGLL
DATE: 2021-10-07
GATE: A37
GATE DEPARTURE: 01:30
TAKEOFF: 01:46
DATE: 2021-10-07
GATE: 563
LANDING: 10:32
GATE ARRIVAL: 10:40
FLIGHT DATA
Crew: 
Speed: 
907 kph
Altitude: 
41,001 ft
Stage Length: 
7,496.1 km
Block Time: 
9.1 hrs
Flight Time: 
8.8 hrs
Fuel Used: 
52,802 kg
Cleared Route: KDEN ROYYL TURBN CHICN VELAA YOKES LNGWD CHUWY GRB YYB YQB PQI MIILS JOOPY 4950N 5040N 5130N 5220N LIMRI XETBO EVRIN NEKAP LAZTU ABDUK NUMPO OKESI HOFIK BEDEK EGLL
TRACK DATA
50,000 ft 1,000 kts
AIRCRAFT INFO AND CUMULATIVE STATS
Aircraft Type: 
B772
Registration: 
SELCAL: 
GKDS
MSN/LN: 
27489 / 65
Operator: 
Total Flights: 
4
Total Block Time: 
35.1 hrs
Total Flight Time: 
33.6 hrs
Total Fuel Used: 
158,861 kg
DATALINK LOG | Newest first | Current as of: 2022-09-29 22:59:00
LABEL SEQUENCE CONTENT Dn/Up
5Z43427 OCT 21 10:43:14z / FLT DECK GOOD / ACF POS GOOD / GRND SERVICES GOOD / MAINT GOOD▼ Dn
QD403910:40 18.3▼ Dn
QC331110:32▼ Dn
2U2635EGLL 070950Z AUTO 20006KT 160V240 9999 OVC004 16/15 Q1026 BECMG BKN006▲ Up
2S2603EGLL▼ Dn
GA1565GATE 563▲ Up
GR1555EGLL 10:30 MAAS 00 YP/UM 00/00 WCHR/S/C 00/00/00 HI-VAL NO DIPL/VIP NO▼ Dn
UM201464CLEARED TO FL 410▲ Up
DM61454REQUEST FL 410 DUE TO A/C PERF▼ Dn
2U0809EGLL 070820Z AUTO 21007KT 6000 OVC002 15/14 Q1026 NOSIG▲ Up
2S0848EGLL▼ Dn
QB463401:46▼ Dn
QA301801:30 134.9▼ Dn
5Z21097 OCT 21 01:20:28z / FLT DECK GOOD / ACF POS GOOD / GRND SERVICES GOOD / MAINT GOOD▼ Dn
2U0743KDEN 070053Z 33008KT 10SM FEW100 SCT150 BKN220 21/03 A2998 RMK AO2 SLP095 VIRGA W T02060033▲ Up
2S0655KDEN▼ Dn
A30603CLEARED TO EGLL VIA GRB YYB YQB PQI MIILS N269A JOOPY natx LIMRI XETBO EVRIN L607 NUMPO P2 BEDEK BEDE1H. SQUAWK 1602.▲ Up
UM2120463KDEN ATIS - DEN DEP INFO Y 0053Z. 32008KT 10SM FEW100 SCT150 BKN220 21/03 A2998 (TWO NINER NINER EIGHT) RMK AO2 SLP095 VIRGA W. DEPG RWY8, RWY25, RUNWAY 3 4 LEFT. ACFT MUST READ BACK ASSIGNED HDG OR FIRST WPT WITH TAKE OFF CLNC. NOTAMS... TWY P6 CLSD TWY P4 CLSD TWY P CLSD BTN TWY EC AND TWY P3 .. DBL OTS. UAS ACTIVITY REPORTED AT 2000Z AT 7THSD 1HND AT 1 NM NORTH OF RWY 25 UAS TYPE UNKNOWN. BIRD ACTIVITY VICINITY ARPT. ALL ACFT IN CONCOURSE AREA ADZ RAMP TWR OF DP AND TRSN. ...ADVS YOU HAVE INFO Y.▲ Up
DM790453 ATIS KDEN D▼ Dn
Q05443[LINK ACK]▲ Up
Q05443[LINK TEST]▼ Dn


AIRCRAFT HISTORY
FLIGHT DATE FLIGHT NO. ORIGIN DESTINATION CLEARED ROUTE BLOCK TIME FLIGHT TIME FUEL USED PILOT
2022-02-10BAW65EGLL HKJK EGLL DET DVR KONAN KOK FERDI LIRSU LALMI ABTAL LATLO OBEDI KLAGY VANAX AGLIB PODOB MEDUX KOGAT TALAS ELPIS ROPOX KEA PAXIS DBA KATAB DESDO ORLEX ALKED NUBAR SOMAK MRW ITOMO IMDUR TAPOS EPLAS PATAR KIMET NAK HKJK8.7 hrs8.3 hrs109,464 lbAnton Vind
2021-10-07BAW218KDEN EGLL KDEN ROYYL TURBN CHICN VELAA YOKES LNGWD CHUWY GRB YYB YQB PQI MIILS JOOPY 4950N 5040N 5130N 5220N LIMRI XETBO EVRIN NEKAP LAZTU ABDUK NUMPO OKESI HOFIK BEDEK EGLL9.1 hrs8.8 hrs116,409 lbAnton Vind
2021-10-03BAW219EGLL KDEN EGLL CPT KENET UGNUS OKTAD DOBEM TOPRO MEDOG FOXLA ABAPO PEMOB LANPI BAKUR ERNAN AMLAD SUNOT 5820N 5930N 5940N 5750N HOIST OMTOL DEGMI YVO DASUG UZMEF CUNOS GEP FSD ONL NARLY YANKI KDEN9.5 hrs9.1 hrs124,357 lbAnton Vind
2021-09-24BAW112KJFK EGLL MERIT DCT HFD DCT PUT DCT WITCH DCT ALLEX N379A ALLRY NATX BEXET DCT BAKUR N546 STU P2 BEDEK7.7 hrs7.3 hrs0 lbAnton Vind